createdAt,value
2022-09-11T00:00:09.136Z,100236.66
2022-09-11T00:01:14.907Z,100230.00
2022-09-11T00:02:17.674Z,100237.31
2022-09-11T00:03:23.225Z,100240.16
2022-09-11T00:04:26.751Z,100237.31
2022-09-11T00:05:28.255Z,100246.13
2022-09-11T00:06:30.711Z,100243.63
2022-09-11T00:07:32.499Z,100241.97
2022-09-11T00:08:36.672Z,100242.81
2022-09-11T00:09:38.137Z,100237.97
2022-09-11T00:10:43.059Z,100246.13
2022-09-11T00:11:44.594Z,100239.00
2022-09-11T00:12:46.993Z,100237.81
2022-09-11T00:13:49.602Z,100237.31
2022-09-11T00:14:51.785Z,100236.50
2022-09-11T00:15:53.301Z,100239.00
2022-09-11T00:16:54.802Z,100243.63
2022-09-11T00:17:56.851Z,100242.81
2022-09-11T00:18:59.856Z,100243.63
2022-09-11T00:20:01.470Z,100244.81
2022-09-11T00:21:03.166Z,100246.47
2022-09-11T00:22:05.927Z,100248.47
2022-09-11T00:23:07.464Z,100246.97
2022-09-11T00:24:10.050Z,100244.97
2022-09-11T00:25:11.636Z,100250.31
2022-09-11T00:26:13.092Z,100250.81
2022-09-11T00:27:14.528Z,100255.28
2022-09-11T00:28:17.547Z,100257.78
2022-09-11T00:29:19.660Z,100259.78
2022-09-11T00:30:21.351Z,100264.00
2022-09-11T00:31:23.846Z,100256.97
2022-09-11T00:32:25.416Z,100261.50
2022-09-11T00:33:27.491Z,100264.31
2022-09-11T00:34:28.935Z,100263.44
2022-09-11T00:35:30.434Z,100240.31
2022-09-11T00:36:32.347Z,100265.97
2022-09-11T00:37:33.856Z,100260.94
2022-09-11T00:38:36.085Z,100266.63
2022-09-11T00:39:37.855Z,100260.13
2022-09-11T00:40:46.431Z,100253.63
2022-09-11T00:41:49.184Z,100258.13
2022-09-11T00:42:53.531Z,100260.63
2022-09-11T00:43:55.341Z,100255.84
2022-09-11T00:44:57.415Z,100265.97
2022-09-11T00:46:00.010Z,100262.81
2022-09-11T00:47:01.958Z,100251.50
2022-09-11T00:48:04.063Z,100259.16
2022-09-11T00:49:11.592Z,100257.16
2022-09-11T00:50:13.922Z,100262.81
2022-09-11T00:51:18.050Z,100262.81
2022-09-11T00:52:19.503Z,100267.31
2022-09-11T00:53:21.118Z,100266.81
2022-09-11T00:54:25.860Z,100269.31
2022-09-11T00:55:28.034Z,100267.66
2022-09-11T00:56:29.928Z,100271.81
2022-09-11T00:57:32.779Z,100267.00
2022-09-11T00:58:35.038Z,100270.97
2022-09-11T00:59:37.116Z,100274.47
2022-09-11T01:00:39.572Z,100270.81
2022-09-11T01:01:41.993Z,100270.81
2022-09-11T01:02:44.844Z,100277.31
2022-09-11T01:03:46.299Z,100279.78
2022-09-11T01:04:47.848Z,100273.31
2022-09-11T01:05:49.347Z,100274.97
2022-09-11T01:06:54.858Z,100283.13
2022-09-11T01:07:56.388Z,100275.47
2022-09-11T01:08:59.171Z,100284.41
2022-09-11T01:10:00.787Z,100286.94
2022-09-11T01:11:20.309Z,100282.97
2022-09-11T01:12:24.685Z,100287.13
2022-09-11T01:13:29.043Z,100285.97
2022-09-11T01:14:49.581Z,100291.28
2022-09-11T01:16:12.337Z,100292.13
2022-09-11T01:17:19.679Z,100298.59
2022-09-11T01:18:26.059Z,100301.44
2022-09-11T01:19:37.706Z,100302.78
2022-09-11T01:20:48.047Z,100296.28
2022-09-11T01:22:13.775Z,100297.94
2022-09-11T01:23:30.217Z,100301.28
2022-09-11T01:24:31.641Z,100308.63
2022-09-11T01:25:45.595Z,100305.81
2022-09-11T01:27:06.954Z,100305.47
2022-09-11T01:28:09.336Z,100295.84
2022-09-11T01:29:13.514Z,100304.31
2022-09-11T01:30:15.987Z,100303.47
2022-09-11T01:31:19.274Z,100300.66
2022-09-11T01:32:24.379Z,100307.97
2022-09-11T01:33:30.929Z,100303.16
2022-09-11T01:34:46.271Z,100296.66
2022-09-11T01:36:05.017Z,100304.50
2022-09-11T01:37:08.854Z,100309.66
2022-09-11T01:38:15.318Z,100301.16
2022-09-11T01:39:17.162Z,100305.66
2022-09-11T01:40:20.303Z,100301.66
2022-09-11T01:41:29.138Z,100293.50
2022-09-11T01:42:33.040Z,100300.84
2022-09-11T01:43:36.256Z,100292.00
2022-09-11T01:44:39.715Z,100299.38
2022-09-11T01:45:45.108Z,100295.38
2022-09-11T01:46:47.772Z,100291.72
2022-09-11T01:47:53.269Z,100301.03
2022-09-11T01:49:00.394Z,100292.22
2022-09-11T01:50:11.039Z,100297.03
2022-09-11T01:51:17.424Z,100289.72
2022-09-11T01:52:21.385Z,100295.03
2022-09-11T01:53:25.814Z,100293.06
2022-09-11T01:54:29.347Z,100299.53
2022-09-11T01:55:34.752Z,100299.03
2022-09-11T01:56:38.736Z,100295.38
2022-09-11T01:57:42.128Z,100292.53
2022-09-11T01:58:45.223Z,100301.53
2022-09-11T01:59:47.742Z,100297.03
2022-09-11T02:00:49.862Z,100297.03
2022-09-11T02:01:52.251Z,100290.56
2022-09-11T02:02:57.675Z,100293.06
2022-09-11T02:04:05.887Z,100301.53
2022-09-11T02:05:16.995Z,100298.72
2022-09-11T02:06:21.239Z,100293.88
2022-09-11T02:07:23.967Z,100300.41
2022-09-11T02:08:29.839Z,100308.22
2022-09-11T02:09:32.695Z,100302.56
2022-09-11T02:10:39.662Z,100306.25
2022-09-11T02:11:41.310Z,100311.06
2022-09-11T02:13:06.632Z,100303.75
2022-09-11T02:14:08.167Z,100303.75
2022-09-11T02:15:11.200Z,100312.22
2022-09-11T02:16:14.596Z,100315.06
2022-09-11T02:17:35.759Z,100308.22
2022-09-11T02:18:44.607Z,100306.06
2022-09-11T02:19:46.051Z,100314.22
2022-09-11T02:20:48.675Z,100317.38
2022-09-11T02:21:50.997Z,100319.69
2022-09-11T02:22:53.145Z,100321.34
2022-09-11T02:23:55.536Z,100318.00
2022-09-11T02:24:57.009Z,100315.19
2022-09-11T02:25:58.523Z,100322.00
2022-09-11T02:27:06.452Z,100319.19
2022-09-11T02:28:07.884Z,100319.19
2022-09-11T02:29:10.361Z,100304.16
2022-09-11T02:30:12.367Z,100310.16
2022-09-11T02:31:13.956Z,100319.47
2022-09-11T02:32:15.476Z,100321.47
2022-09-11T02:33:30.097Z,100325.47
2022-09-11T02:34:33.448Z,100327.78
2022-09-11T02:35:40.624Z,100324.97
2022-09-11T02:36:42.108Z,100335.44
2022-09-11T02:38:01.990Z,100334.59
2022-09-11T02:39:29.627Z,100342.25
2022-09-11T02:40:49.619Z,100325.63
2022-09-11T02:41:55.311Z,100336.94
2022-09-11T02:43:05.849Z,100332.41
2022-09-11T02:44:27.979Z,100342.88
2022-09-11T02:45:32.103Z,100343.22
2022-09-11T02:46:46.548Z,100335.56
2022-09-11T02:47:55.621Z,100346.03
2022-09-11T02:49:00.215Z,100353.69
2022-09-11T02:50:17.372Z,100345.22
2022-09-11T02:51:31.077Z,100352.03
2022-09-11T02:52:32.889Z,100346.69
2022-09-11T02:53:34.923Z,100340.22
2022-09-11T02:54:48.979Z,100348.69
2022-09-11T02:56:08.040Z,100351.53
2022-09-11T02:57:20.671Z,100354.34
2022-09-11T02:58:26.925Z,100349.34
2022-09-11T02:59:34.012Z,100348.53
2022-09-11T03:00:35.553Z,100344.84
2022-09-11T03:01:46.863Z,100351.03
2022-09-11T03:02:48.398Z,100338.03
2022-09-11T03:03:49.970Z,100346.53
2022-09-11T03:04:51.462Z,100348.19
2022-09-11T03:05:53.146Z,100347.03
2022-09-11T03:06:54.687Z,100344.19
2022-09-11T03:07:56.213Z,100347.03
2022-09-11T03:08:57.704Z,100347.88
2022-09-11T03:09:59.260Z,100347.88
2022-09-11T03:11:00.743Z,100350.38
2022-09-11T03:12:02.986Z,100348.69
2022-09-11T03:13:06.909Z,100345.03
2022-09-11T03:14:08.680Z,100349.53
2022-09-11T03:15:12.631Z,100348.69
2022-09-11T03:16:16.730Z,100343.03
2022-09-11T03:17:19.973Z,100346.19
2022-09-11T03:18:23.150Z,100347.03
2022-09-11T03:19:26.327Z,100338.53
2022-09-11T03:20:29.499Z,100347.88
2022-09-11T03:21:31.042Z,100348.69
2022-09-11T03:22:34.047Z,100357.69
2022-09-11T03:23:35.564Z,100351.19
2022-09-11T03:24:37.159Z,100351.19
2022-09-11T03:25:41.940Z,100354.88
2022-09-11T03:26:43.592Z,100358.53
2022-09-11T03:27:45.288Z,100365.00
2022-09-11T03:28:48.088Z,100354.53
2022-09-11T03:29:50.167Z,100364.69
2022-09-11T03:30:52.995Z,100364.69
2022-09-11T03:31:54.881Z,100364.69
2022-09-11T03:32:56.638Z,100361.03
2022-09-11T03:33:58.855Z,100355.38
2022-09-11T03:35:01.223Z,100361.03
2022-09-11T03:36:05.963Z,100361.03
2022-09-11T03:37:07.435Z,100364.69
2022-09-11T03:38:09.343Z,100369.50
2022-09-11T03:39:12.616Z,100371.19
2022-09-11T03:40:14.176Z,100367.50
2022-09-11T03:41:16.615Z,100347.81
2022-09-11T03:42:18.107Z,100368.69
2022-09-11T03:43:19.630Z,100366.19
2022-09-11T03:44:21.554Z,100363.00
2022-09-11T03:45:23.122Z,100368.16
2022-09-11T03:46:25.612Z,100368.16
2022-09-11T03:47:27.103Z,100368.16
2022-09-11T03:48:29.743Z,100370.16
2022-09-11T03:49:31.277Z,100366.50
2022-09-11T03:50:32.829Z,100373.31
2022-09-11T03:51:35.205Z,100370.50
2022-09-11T03:52:36.667Z,100376.16
2022-09-11T03:53:38.868Z,100387.47
2022-09-11T03:54:40.354Z,100368.81
2022-09-11T03:55:42.619Z,100381.81
2022-09-11T03:56:44.130Z,100382.13
2022-09-11T03:57:46.145Z,100385.81
2022-09-11T03:58:48.303Z,100389.78
2022-09-11T03:59:50.051Z,100384.97
2022-09-11T04:00:52.191Z,100384.13
2022-09-11T04:01:53.875Z,100389.78
2022-09-11T04:02:58.334Z,100383.28
2022-09-11T04:04:17.296Z,100388.97
2022-09-11T04:05:18.842Z,100383.28
2022-09-11T04:06:20.350Z,100396.59
2022-09-11T04:07:22.519Z,100395.44
2022-09-11T04:08:24.367Z,100393.78
2022-09-11T04:09:26.755Z,100390.94
2022-09-11T04:10:28.634Z,100393.78
2022-09-11T04:11:36.715Z,100392.94
2022-09-11T04:12:39.427Z,100390.44
2022-09-11T04:13:42.115Z,100401.75
2022-09-11T04:14:48.430Z,100397.25
2022-09-11T04:15:52.561Z,100391.59
2022-09-11T04:16:54.419Z,100399.22
2022-09-11T04:17:56.679Z,100395.56
2022-09-11T04:18:59.670Z,100393.56
2022-09-11T04:20:01.204Z,100402.06
2022-09-11T04:21:05.702Z,100400.09
2022-09-11T04:22:07.500Z,100401.22
2022-09-11T04:23:14.282Z,100399.56
2022-09-11T04:24:18.029Z,100403.53
2022-09-11T04:25:21.227Z,100401.53
2022-09-11T04:26:24.274Z,100408.03
2022-09-11T04:27:29.902Z,100407.19
2022-09-11T04:28:31.597Z,100400.72
2022-09-11T04:29:34.203Z,100405.53
2022-09-11T04:30:38.432Z,100401.88
2022-09-11T04:31:41.198Z,100395.38
2022-09-11T04:32:44.220Z,100399.03
2022-09-11T04:33:46.110Z,100402.19
2022-09-11T04:34:48.275Z,100398.53
2022-09-11T04:35:51.135Z,100397.38
2022-09-11T04:36:52.628Z,100404.69
2022-09-11T04:37:55.762Z,100395.69
2022-09-11T04:38:58.286Z,100397.38
2022-09-11T04:40:00.308Z,100408.69
2022-09-11T04:41:03.099Z,100398.53
2022-09-11T04:42:04.702Z,100399.69
2022-09-11T04:43:07.991Z,100405.34
2022-09-11T04:44:09.631Z,100405.34
2022-09-11T04:45:16.310Z,100403.69
2022-09-11T04:46:18.009Z,100402.84
2022-09-11T04:47:20.816Z,100415.00
2022-09-11T04:48:22.315Z,100416.16
2022-09-11T04:49:23.855Z,100414.16
2022-09-11T04:50:25.407Z,100421.81
2022-09-11T04:51:45.194Z,100422.63
2022-09-11T04:52:48.759Z,100416.47
2022-09-11T04:53:50.683Z,100415.31
2022-09-11T04:54:52.201Z,100417.31
2022-09-11T04:56:00.611Z,100420.13
2022-09-11T04:57:04.287Z,100422.13
2022-09-11T04:58:10.087Z,100424.13
2022-09-11T04:59:16.091Z,100410.25
2022-09-11T05:00:25.805Z,100427.78
2022-09-11T05:01:27.845Z,100429.25
2022-09-11T05:02:32.276Z,100428.41
2022-09-11T05:03:33.937Z,100420.25
2022-09-11T05:04:36.000Z,100426.75
2022-09-11T05:05:37.560Z,100431.56
2022-09-11T05:06:39.070Z,100422.56
2022-09-11T05:07:45.096Z,100433.03
2022-09-11T05:08:46.679Z,100424.88
2022-09-11T05:09:52.621Z,100432.22
2022-09-11T05:10:55.018Z,100433.38
2022-09-11T05:11:57.157Z,100435.38
2022-09-11T05:13:01.133Z,100434.53
2022-09-11T05:14:02.938Z,100425.53
2022-09-11T05:15:07.321Z,100434.00
2022-09-11T05:16:09.886Z,100430.34
2022-09-11T05:17:13.377Z,100431.84
2022-09-11T05:18:16.569Z,100431.84
2022-09-11T05:19:19.000Z,100435.78
2022-09-11T05:20:21.097Z,100435.78
2022-09-11T05:21:22.955Z,100434.13
2022-09-11T05:22:25.001Z,100438.09
2022-09-11T05:23:31.599Z,100450.25
2022-09-11T05:24:33.726Z,100453.06
2022-09-11T05:25:37.011Z,100442.59
2022-09-11T05:26:38.556Z,100453.91
2022-09-11T05:27:41.675Z,100439.78
2022-09-11T05:28:43.208Z,100449.41
2022-09-11T05:29:45.778Z,100455.06
2022-09-11T05:30:49.431Z,100452.25
2022-09-11T05:31:53.167Z,100454.25
2022-09-11T05:32:55.414Z,100458.22
2022-09-11T05:33:56.978Z,100451.41
2022-09-11T05:34:59.509Z,100453.41
2022-09-11T05:36:03.235Z,100460.72
2022-09-11T05:37:05.307Z,100459.91
2022-09-11T05:38:12.550Z,100460.72
2022-09-11T05:39:14.979Z,100465.53
2022-09-11T05:40:16.671Z,100466.38
2022-09-11T05:41:18.319Z,100462.41
2022-09-11T05:42:20.389Z,100468.88
2022-09-11T05:43:26.588Z,100474.53
2022-09-11T05:44:30.084Z,100458.41
2022-09-11T05:45:32.556Z,100470.56
2022-09-11T05:46:34.078Z,100471.41
2022-09-11T05:47:37.747Z,100471.09
2022-09-11T05:48:39.474Z,100475.59
2022-09-11T05:49:41.157Z,100468.28
2022-09-11T05:50:42.663Z,100481.25
2022-09-11T05:51:44.186Z,100478.44
2022-09-11T05:52:45.645Z,100476.75
2022-09-11T05:53:48.030Z,100483.25
2022-09-11T05:54:49.976Z,100484.91
2022-09-11T05:55:51.820Z,100476.44
2022-09-11T05:56:55.404Z,100481.25
2022-09-11T05:57:59.914Z,100488.56
2022-09-11T05:59:02.619Z,100483.75
2022-09-11T06:00:11.540Z,100483.75
2022-09-11T06:01:27.675Z,100488.25
2022-09-11T06:02:41.262Z,100489.91
2022-09-11T06:03:42.945Z,100496.09
2022-09-11T06:04:46.467Z,100492.09
2022-09-11T06:05:48.015Z,100492.94
2022-09-11T06:06:50.095Z,100489.78
2022-09-11T06:07:53.288Z,100491.47
2022-09-11T06:08:56.159Z,100493.16
2022-09-11T06:10:02.995Z,100500.81
2022-09-11T06:11:07.453Z,100502.16
2022-09-11T06:12:12.448Z,100501.00
2022-09-11T06:13:18.338Z,100499.84
2022-09-11T06:14:22.039Z,100504.00
2022-09-11T06:15:45.741Z,100502.03
2022-09-11T06:16:48.302Z,100505.38
2022-09-11T06:17:50.854Z,100505.88
2022-09-11T06:18:52.822Z,100513.22
2022-09-11T06:19:55.375Z,100500.75
2022-09-11T06:21:00.685Z,100506.09
2022-09-11T06:22:06.836Z,100513.09
2022-09-11T06:23:12.724Z,100506.28
2022-09-11T06:24:14.226Z,100513.28
2022-09-11T06:25:15.713Z,100516.94
2022-09-11T06:26:18.124Z,100513.47
2022-09-11T06:27:20.834Z,100509.19
2022-09-11T06:28:24.462Z,100512.19
2022-09-11T06:29:29.110Z,100508.75
2022-09-11T06:30:30.741Z,100510.94
2022-09-11T06:31:32.297Z,100513.16
2022-09-11T06:32:33.762Z,100511.66
2022-09-11T06:33:36.196Z,100513.00
2022-09-11T06:34:37.919Z,100522.50
2022-09-11T06:35:42.356Z,100511.19
2022-09-11T06:36:45.858Z,100520.72
2022-09-11T06:37:50.259Z,100513.59
2022-09-11T06:38:53.832Z,100516.91
2022-09-11T06:39:55.403Z,100510.09
2022-09-11T06:41:03.853Z,100513.13
2022-09-11T06:42:09.797Z,100513.66
2022-09-11T06:43:12.780Z,100518.66
2022-09-11T06:44:15.263Z,100518.66
2022-09-11T06:45:17.291Z,100511.50
2022-09-11T06:46:19.966Z,100519.69
2022-09-11T06:47:21.425Z,100522.50
2022-09-11T06:48:23.036Z,100520.72
2022-09-11T06:49:24.501Z,100515.88
2022-09-11T06:50:44.399Z,100529.22
2022-09-11T06:51:46.898Z,100521.22
2022-09-11T06:52:52.091Z,100520.06
2022-09-11T06:54:03.299Z,100526.56
2022-09-11T06:55:13.443Z,100523.41
2022-09-11T06:56:19.790Z,100521.06
2022-09-11T06:57:21.254Z,100530.06
2022-09-11T06:58:22.752Z,100530.06
2022-09-11T06:59:25.717Z,100522.41
2022-09-11T07:00:27.212Z,100524.91
2022-09-11T07:01:29.022Z,100526.28
2022-09-11T07:02:36.615Z,100525.47
2022-09-11T07:03:38.228Z,100521.47
2022-09-11T07:04:42.630Z,100524.81
2022-09-11T07:05:46.699Z,100524.81
2022-09-11T07:06:48.612Z,100529.31
2022-09-11T07:07:51.846Z,100526.13
2022-09-11T07:08:53.955Z,100531.47
2022-09-11T07:09:55.808Z,100519.81
2022-09-11T07:11:06.962Z,100524.31
2022-09-11T07:12:09.901Z,100521.16
2022-09-11T07:13:11.582Z,100522.84
2022-09-11T07:14:14.123Z,100522.84
2022-09-11T07:15:17.589Z,100531.03
2022-09-11T07:16:19.230Z,100526.19
2022-09-11T07:17:28.252Z,100527.88
2022-09-11T07:18:36.339Z,100526.19
2022-09-11T07:19:39.783Z,100525.53
2022-09-11T07:20:41.431Z,100530.88
2022-09-11T07:21:42.902Z,100524.88
2022-09-11T07:22:46.682Z,100516.06
2022-09-11T07:23:50.658Z,100527.06
2022-09-11T07:24:55.154Z,100528.72
2022-09-11T07:25:56.715Z,100526.41
2022-09-11T07:26:58.814Z,100522.44
2022-09-11T07:28:04.907Z,100528.63
2022-09-11T07:29:06.461Z,100527.47
2022-09-11T07:30:08.879Z,100529.97
2022-09-11T07:31:18.598Z,100526.81
2022-09-11T07:32:22.179Z,100528.13
2022-09-11T07:33:23.894Z,100529.81
2022-09-11T07:34:27.063Z,100525.00
2022-09-11T07:35:28.715Z,100528.34
2022-09-11T07:36:32.273Z,100527.19
2022-09-11T07:37:34.676Z,100519.19
2022-09-11T07:38:36.156Z,100524.34
2022-09-11T07:39:39.009Z,100522.00
2022-09-11T07:40:45.723Z,100530.69
2022-09-11T07:41:47.258Z,100531.53
2022-09-11T07:42:53.638Z,100529.72
2022-09-11T07:43:57.442Z,100538.72
2022-09-11T07:45:00.703Z,100532.41
2022-09-11T07:46:05.206Z,100532.56
2022-09-11T07:47:08.537Z,100531.06
2022-09-11T07:48:17.463Z,100535.28
2022-09-11T07:49:19.095Z,100538.94
2022-09-11T07:50:21.427Z,100531.78
2022-09-11T07:51:23.678Z,100531.44
2022-09-11T07:52:25.159Z,100536.44
2022-09-11T07:53:34.530Z,100541.44
2022-09-11T07:54:36.421Z,100543.97
2022-09-11T07:55:38.219Z,100544.81
2022-09-11T07:56:41.175Z,100547.31
2022-09-11T07:57:46.597Z,100536.81
2022-09-11T07:58:48.800Z,100546.81
2022-09-11T07:59:51.585Z,100546.47
2022-09-11T08:00:59.722Z,100552.34
2022-09-11T08:02:01.345Z,100545.19
2022-09-11T08:03:03.723Z,100548.50
2022-09-11T08:04:10.732Z,100549.84
2022-09-11T08:05:12.202Z,100549.19
2022-09-11T08:06:18.941Z,100548.53
2022-09-11T08:07:25.546Z,100549.53
2022-09-11T08:08:29.076Z,100548.41
2022-09-11T08:09:30.709Z,100541.22
2022-09-11T08:10:36.296Z,100548.25
2022-09-11T08:11:38.642Z,100550.94
2022-09-11T08:12:40.150Z,100552.75
2022-09-11T08:13:41.999Z,100550.75
2022-09-11T08:14:44.071Z,100550.09
2022-09-11T08:15:51.474Z,100554.78
2022-09-11T08:16:54.614Z,100543.91
2022-09-11T08:17:56.980Z,100542.91
2022-09-11T08:18:58.592Z,100547.94
2022-09-11T08:20:00.077Z,100550.09
2022-09-11T08:21:03.486Z,100558.09
2022-09-11T08:22:05.603Z,100545.28
2022-09-11T08:23:12.486Z,100550.75
2022-09-11T08:24:14.160Z,100559.09
2022-09-11T08:25:16.203Z,100558.94
2022-09-11T08:26:19.685Z,100562.09
2022-09-11T08:27:22.331Z,100561.94
2022-09-11T08:28:23.778Z,100556.09
2022-09-11T08:29:25.380Z,100564.28
2022-09-11T08:30:27.446Z,100564.13
2022-09-11T08:31:29.161Z,100564.78
2022-09-11T08:32:33.358Z,100568.94
2022-09-11T08:33:36.026Z,100571.63
2022-09-11T08:34:38.490Z,100572.94
2022-09-11T08:35:40.475Z,100563.41
2022-09-11T08:36:42.098Z,100566.72
2022-09-11T08:37:43.886Z,100577.44
2022-09-11T08:38:46.203Z,100562.41
2022-09-11T08:39:47.977Z,100574.25
2022-09-11T08:40:51.083Z,100563.72
2022-09-11T08:41:53.669Z,100571.41
2022-09-11T08:43:00.566Z,100564.56
2022-09-11T08:44:02.071Z,100577.59
2022-09-11T08:45:04.091Z,100573.56
2022-09-11T08:46:12.277Z,100576.09
2022-09-11T08:47:15.299Z,100574.06
2022-09-11T08:48:18.562Z,100577.41
2022-09-11T08:49:26.420Z,100583.63
2022-09-11T08:50:35.320Z,100578.41
2022-09-11T08:51:36.878Z,100585.44
2022-09-11T08:52:39.394Z,100577.25
2022-09-11T08:53:45.579Z,100580.09
2022-09-11T08:54:50.598Z,100577.72
2022-09-11T08:55:54.083Z,100583.91
2022-09-11T08:57:05.655Z,100581.72
2022-09-11T08:58:15.783Z,100575.34
2022-09-11T08:59:27.109Z,100582.84
2022-09-11T09:00:42.405Z,100580.16
2022-09-11T09:01:53.137Z,100582.50
2022-09-11T09:02:57.498Z,100583.16
2022-09-11T09:04:13.854Z,100580.97
2022-09-11T09:05:15.655Z,100576.41
2022-09-11T09:06:21.556Z,100579.56
2022-09-11T09:07:39.800Z,100573.34
2022-09-11T09:08:48.805Z,100572.78
2022-09-11T09:09:51.129Z,100586.66
2022-09-11T09:10:53.766Z,100577.94
2022-09-11T09:11:59.743Z,100582.94
2022-09-11T09:13:02.180Z,100579.41
2022-09-11T09:14:10.254Z,100583.72
2022-09-11T09:15:35.920Z,100588.84
2022-09-11T09:16:44.011Z,100581.78
2022-09-11T09:18:07.220Z,100581.44
2022-09-11T09:19:10.387Z,100586.47
2022-09-11T09:20:21.435Z,100583.28
2022-09-11T09:21:28.038Z,100582.94
2022-09-11T09:22:34.678Z,100579.25
2022-09-11T09:23:47.406Z,100591.47
2022-09-11T09:24:50.061Z,100589.44
2022-09-11T09:25:55.067Z,100594.78
2022-09-11T09:26:57.518Z,100602.16
2022-09-11T09:28:04.260Z,100582.22
2022-09-11T09:29:08.163Z,100587.91
2022-09-11T09:30:14.781Z,100592.13
2022-09-11T09:31:22.606Z,100580.72
2022-09-11T09:32:26.323Z,100598.13
2022-09-11T09:33:31.516Z,100589.59
2022-09-11T09:34:35.210Z,100592.44
2022-09-11T09:35:43.699Z,100587.91
2022-09-11T09:37:06.205Z,100590.78
2022-09-11T09:38:21.773Z,100585.06
2022-09-11T09:39:25.430Z,100581.03
2022-09-11T09:40:26.978Z,100584.41
2022-09-11T09:41:49.611Z,100587.50
2022-09-11T09:43:02.011Z,100580.28
2022-09-11T09:44:19.953Z,100579.25
2022-09-11T09:45:39.854Z,100579.69
2022-09-11T09:46:42.529Z,100589.25
2022-09-11T09:47:44.710Z,100573.50
2022-09-11T09:48:46.145Z,100581.41
2022-09-11T09:49:47.615Z,100579.22
2022-09-11T09:50:49.275Z,100580.31
2022-09-11T09:51:51.302Z,100575.25
2022-09-11T09:52:52.951Z,100578.34
2022-09-11T09:53:55.345Z,100578.22
2022-09-11T09:54:56.823Z,100582.94
2022-09-11T09:55:58.962Z,100577.84
2022-09-11T09:57:02.484Z,100573.84
2022-09-11T09:58:03.939Z,100578.91
2022-09-11T09:59:08.416Z,100576.56
2022-09-11T10:00:09.984Z,100571.72
2022-09-11T10:01:38.053Z,100572.13
2022-09-11T10:02:42.873Z,100570.75
2022-09-11T10:03:44.319Z,100570.84
2022-09-11T10:04:45.803Z,100576.41
2022-09-11T10:05:47.383Z,100574.56
2022-09-11T10:06:49.579Z,100569.88
2022-09-11T10:07:52.054Z,100575.34
2022-09-11T10:08:59.036Z,100579.41
2022-09-11T10:10:04.683Z,100583.81
2022-09-11T10:11:06.715Z,100583.34
2022-09-11T10:12:12.762Z,100576.31
2022-09-11T10:13:21.248Z,100579.09
2022-09-11T10:14:49.096Z,100585.06
2022-09-11T10:15:44.295Z,100587.38
2022-09-11T10:16:48.390Z,100580.75
2022-09-11T10:17:50.459Z,100582.19
2022-09-11T10:18:53.258Z,100582.47
2022-09-11T10:19:55.627Z,100574.53
2022-09-11T10:21:12.196Z,100577.66
2022-09-11T10:22:23.844Z,100581.25
2022-09-11T10:23:25.963Z,100573.25
2022-09-11T10:24:30.042Z,100573.53
2022-09-11T10:25:31.499Z,100568.47
2022-09-11T10:26:38.901Z,100562.19
2022-09-11T10:27:43.552Z,100561.03
2022-09-11T10:28:46.333Z,100572.84
2022-09-11T10:29:49.243Z,100560.81
2022-09-11T10:31:16.854Z,100570.03
2022-09-11T10:32:18.339Z,100564.72
2022-09-11T10:33:26.800Z,100559.72
2022-09-11T10:34:28.607Z,100556.28
2022-09-11T10:35:30.239Z,100547.63
2022-09-11T10:36:31.764Z,100559.81
2022-09-11T10:37:34.258Z,100544.59
2022-09-11T10:38:41.425Z,100547.69
2022-09-11T10:39:44.044Z,100548.22
2022-09-11T10:40:57.808Z,100552.03
2022-09-11T10:42:00.394Z,100548.94
2022-09-11T10:43:01.827Z,100548.31
2022-09-11T10:44:04.270Z,100551.28
2022-09-11T10:45:12.134Z,100548.69
2022-09-11T10:46:19.367Z,100543.28
2022-09-11T10:47:22.112Z,100541.91
2022-09-11T10:48:23.558Z,100543.81
2022-09-11T10:49:25.054Z,100541.88
2022-09-11T10:50:26.906Z,100527.22
2022-09-11T10:51:29.921Z,100539.59
2022-09-11T10:52:31.342Z,100539.31
2022-09-11T10:53:34.266Z,100545.94
2022-09-11T10:54:38.513Z,100540.69
2022-09-11T10:55:40.861Z,100541.09
2022-09-11T10:57:05.312Z,100544.44
2022-09-11T10:58:19.490Z,100537.13
2022-09-11T10:59:22.350Z,100537.53
2022-09-11T11:00:24.531Z,100550.94
2022-09-11T11:01:26.334Z,100541.81
2022-09-11T11:02:29.417Z,100538.28
2022-09-11T11:03:30.949Z,100540.94
2022-09-11T11:04:32.526Z,100542.78
2022-09-11T11:05:36.970Z,100545.88
2022-09-11T11:07:04.591Z,100542.84
2022-09-11T11:08:06.125Z,100539.22
2022-09-11T11:09:24.876Z,100545.94
2022-09-11T11:10:48.453Z,100538.88
2022-09-11T11:11:51.116Z,100540.13
2022-09-11T11:13:14.491Z,100545.09
2022-09-11T11:14:21.881Z,100533.69
2022-09-11T11:15:30.455Z,100533.81
2022-09-11T11:16:50.618Z,100540.44
2022-09-11T11:18:16.047Z,100538.78
2022-09-11T11:19:27.703Z,100542.06
2022-09-11T11:20:32.274Z,100536.38
2022-09-11T11:22:00.196Z,100530.72
2022-09-11T11:23:07.784Z,100546.28
2022-09-11T11:24:17.947Z,100532.38
2022-09-11T11:25:22.864Z,100536.53
2022-09-11T11:26:40.177Z,100528.41
2022-09-11T11:27:51.320Z,100527.63
2022-09-11T11:28:58.731Z,100538.38
2022-09-11T11:30:05.320Z,100532.63
2022-09-11T11:31:19.081Z,100534.28
2022-09-11T11:32:30.350Z,100538.81
2022-09-11T11:33:42.650Z,100528.59
2022-09-11T11:35:04.546Z,100542.56
2022-09-11T11:36:10.767Z,100536.38
2022-09-11T11:37:18.091Z,100530.28
2022-09-11T11:38:24.267Z,100531.13
2022-09-11T11:39:27.101Z,100533.16
2022-09-11T11:40:29.012Z,100538.53
2022-09-11T11:41:44.455Z,100535.28
2022-09-11T11:42:47.323Z,100537.38
2022-09-11T11:43:48.812Z,100528.72
2022-09-11T11:44:51.384Z,100531.13
2022-09-11T11:46:02.193Z,100537.72
2022-09-11T11:47:04.330Z,100529.09
2022-09-11T11:48:25.391Z,100532.03
2022-09-11T11:49:42.081Z,100531.19
2022-09-11T11:50:44.684Z,100533.16
2022-09-11T11:51:57.177Z,100531.06
2022-09-11T11:53:10.303Z,100522.88
2022-09-11T11:54:14.512Z,100531.97
2022-09-11T11:55:23.519Z,100532.81
2022-09-11T11:56:42.816Z,100527.06
2022-09-11T11:57:45.806Z,100535.28
2022-09-11T11:58:49.238Z,100533.63
2022-09-11T12:00:19.953Z,100531.91
2022-09-11T12:01:30.070Z,100533.56
2022-09-11T12:02:34.003Z,100526.88
2022-09-11T12:04:01.544Z,100528.41
2022-09-11T12:05:04.643Z,100525.13
2022-09-11T12:06:07.750Z,100524.31
2022-09-11T12:07:14.167Z,100523.50
2022-09-11T12:08:16.640Z,100527.72
2022-09-11T12:09:18.061Z,100523.66
2022-09-11T12:10:21.714Z,100528.63
2022-09-11T12:11:27.541Z,100523.78
2022-09-11T12:12:29.877Z,100521.78
2022-09-11T12:13:32.554Z,100528.03
2022-09-11T12:14:34.209Z,100520.69
2022-09-11T12:15:36.731Z,100525.63
2022-09-11T12:16:39.136Z,100527.72
2022-09-11T12:17:40.656Z,100534.75
2022-09-11T12:18:42.781Z,100528.22
2022-09-11T12:20:03.894Z,100530.66
2022-09-11T12:21:23.293Z,100529.00
2022-09-11T12:22:34.154Z,100533.78